Time;durP1;ratioP1;P1;durP2;ratioP2;P2;SDS_P1;SDS_P2;PMS_P1;PMS_P2;Temp;Humidity;BMP_temperature;BMP_pressure;BME280_temperature;BME280_humidity;BME280_pressure;Samples;Min_cycle;Max_cycle;Signal;HPM_P1;HPM_P2
2024/01/02 00:01:09;;;;;;;11.98;3.72;;;;;;;7.44;100.00;99940.13;5096030;28;20048;-68
2024/01/02 00:03:57;;;;;;;12.45;3.45;;;;;;;7.42;100.00;99936.06;5116592;27;20051;-68
2024/01/02 00:06:48;;;;;;;11.45;3.30;;;;;;;7.43;100.00;99926.84;5093150;28;20048;-67
2024/01/02 00:09:36;;;;;;;12.27;3.95;;;;;;;7.45;100.00;99925.50;5094120;28;20381;-68
2024/01/02 00:12:24;;;;;;;13.23;3.85;;;;;;;7.43;100.00;99916.00;5082338;28;20469;-67
2024/01/02 00:15:12;;;;;;;10.90;3.45;;;;;;;7.46;100.00;99910.06;5080730;28;20048;-67
2024/01/02 00:18:00;;;;;;;18.52;3.65;;;;;;;7.46;100.00;99907.34;5100607;28;20039;-67
2024/01/02 00:20:48;;;;;;;13.93;3.15;;;;;;;7.45;100.00;99889.44;5113714;28;20048;-67
2024/01/02 00:23:36;;;;;;;11.05;3.10;;;;;;;7.47;100.00;99884.59;5099267;28;20436;-67
2024/01/02 00:26:24;;;;;;;13.57;3.50;;;;;;;7.47;100.00;99866.41;5114007;28;20086;-67
2024/01/02 00:29:12;;;;;;;10.63;3.35;;;;;;;7.49;100.00;99855.31;5072314;28;20113;-67
2024/01/02 00:32:00;;;;;;;11.13;3.15;;;;;;;7.49;100.00;99855.31;5086234;27;20087;-67
2024/01/02 00:34:48;;;;;;;9.98;2.95;;;;;;;7.51;100.00;99836.09;5102692;28;20539;-68
2024/01/02 00:37:36;;;;;;;8.95;3.08;;;;;;;7.51;100.00;99814.41;5097653;28;20062;-68
2024/01/02 00:40:24;;;;;;;9.68;2.75;;;;;;;7.52;100.00;99818.72;5098848;28;20048;-68
2024/01/02 00:43:12;;;;;;;11.02;3.17;;;;;;;7.53;100.00;99807.63;5098622;28;20043;-68
2024/01/02 00:46:00;;;;;;;9.20;3.10;;;;;;;7.54;100.00;99787.53;5077902;28;20407;-68
2024/01/02 00:48:48;;;;;;;10.50;2.80;;;;;;;7.58;100.00;99771.56;5095738;28;20039;-68
2024/01/02 00:51:36;;;;;;;9.25;2.70;;;;;;;7.56;100.00;99746.63;5077036;28;20051;-68
2024/01/02 00:54:24;;;;;;;9.65;2.63;;;;;;;7.55;100.00;99734.97;5077244;28;20190;-67
2024/01/02 00:57:12;;;;;;;7.82;2.55;;;;;;;7.56;100.00;99727.66;5078118;28;20073;-68
2024/01/02 01:00:00;;;;;;;7.47;2.40;;;;;;;7.56;100.00;99727.66;5080197;28;20678;-67
2024/01/02 01:02:48;;;;;;;8.98;2.75;;;;;;;7.54;100.00;99711.66;5099481;28;20043;-68
2024/01/02 01:05:36;;;;;;;10.77;2.95;;;;;;;7.53;100.00;99699.19;5071078;28;20039;-68
2024/01/02 01:08:25;;;;;;;6.47;2.45;;;;;;;7.53;100.00;99693.78;5083974;28;20040;-67
2024/01/02 01:11:13;;;;;;;6.38;2.35;;;;;;;7.51;100.00;99681.59;5064803;28;20123;-68
2024/01/02 01:14:01;;;;;;;6.68;2.10;;;;;;;7.50;100.00;99672.63;5095794;28;20044;-67
2024/01/02 01:16:49;;;;;;;6.68;2.10;;;;;;;7.51;100.00;99657.19;5086026;28;20059;-67
2024/01/02 01:19:39;;;;;;;7.18;2.10;;;;;;;7.52;100.00;99643.34;5090356;28;20044;-67
2024/01/02 01:22:27;;;;;;;6.35;2.38;;;;;;;7.51;100.00;99644.44;5069921;28;20129;-65
2024/01/02 01:25:15;;;;;;;6.88;2.42;;;;;;;7.51;100.00;99630.91;5112174;28;20093;-66
2024/01/02 01:28:03;;;;;;;7.32;2.25;;;;;;;7.51;100.00;99621.97;5120645;28;20103;-64
2024/01/02 01:30:51;;;;;;;6.88;1.92;;;;;;;7.51;100.00;99603.78;5086422;28;20139;-67
2024/01/02 01:33:39;;;;;;;7.10;2.10;;;;;;;7.55;100.00;99587.78;5100510;28;20533;-68
2024/01/02 01:36:28;;;;;;;5.35;2.13;;;;;;;7.58;100.00;99571.78;5083895;28;20075;-67
2024/01/02 01:39:16;;;;;;;5.55;1.90;;;;;;;7.60;100.00;99568.78;5097603;28;20173;-67
2024/01/02 01:42:04;;;;;;;3.80;1.83;;;;;;;7.60;100.00;99557.94;5078719;28;20086;-67
2024/01/02 01:44:52;;;;;;;3.88;1.60;;;;;;;7.57;100.00;99548.44;5096877;28;20039;-68
2024/01/02 01:47:40;;;;;;;4.63;1.67;;;;;;;7.58;100.00;99541.97;5097194;28;20048;-67
2024/01/02 01:50:29;;;;;;;4.85;1.98;;;;;;;7.58;100.00;99536.53;5103976;28;20152;-67
2024/01/02 01:53:18;;;;;;;3.22;1.40;;;;;;;7.60;100.00;99522.69;5074512;28;20526;-68
2024/01/02 01:56:07;;;;;;;2.88;1.48;;;;;;;7.58;100.00;99506.72;5098617;28;20052;-68
2024/01/02 01:58:56;;;;;;;6.18;1.83;;;;;;;7.57;100.00;99490.72;5083898;28;20132;-67
2024/01/02 02:01:47;;;;;;;3.88;1.55;;;;;;;7.58;100.00;99486.94;5096919;28;20039;-67
2024/01/02 02:04:36;;;;;;;5.03;1.60;;;;;;;7.53;100.00;99481.53;5089503;28;20109;-68
2024/01/02 02:07:24;;;;;;;1.67;1.20;;;;;;;7.53;100.00;99471.53;5064275;28;20048;-66
2024/01/02 02:10:12;;;;;;;5.00;1.67;;;;;;;7.52;100.00;99453.63;5064067;28;20048;-66
2024/01/02 02:13:00;;;;;;;3.38;1.63;;;;;;;7.51;100.00;99457.44;5084318;28;20051;-67
2024/01/02 02:15:49;;;;;;;3.65;1.52;;;;;;;7.56;100.00;99446.56;5085764;28;20055;-67
2024/01/02 02:18:36;;;;;;;3.35;1.40;;;;;;;7.55;100.00;99434.13;5111678;28;20135;-68
2024/01/02 02:21:25;;;;;;;2.70;1.30;;;;;;;7.56;100.00;99433.00;5097611;28;20131;-67
2024/01/02 02:24:13;;;;;;;2.38;1.42;;;;;;;7.59;100.00;99415.38;5064288;28;20044;-67
2024/01/02 02:27:01;;;;;;;2.92;1.00;;;;;;;7.58;100.00;99398.31;5083609;28;20047;-67
2024/01/02 02:29:49;;;;;;;5.18;1.60;;;;;;;7.57;100.00;99380.41;5097183;28;20142;-66
2024/01/02 02:32:37;;;;;;;2.70;1.20;;;;;;;7.57;100.00;99376.88;5090531;28;20546;-66
2024/01/02 02:35:26;;;;;;;2.65;0.90;;;;;;;7.56;100.00;99375.28;5076300;28;20392;-67
2024/01/02 02:38:14;;;;;;;3.33;1.10;;;;;;;7.59;100.00;99377.41;5075563;28;20392;-67
2024/01/02 02:41:03;;;;;;;2.08;1.45;;;;;;;7.58;100.00;99371.19;5111522;28;20054;-67
2024/01/02 02:43:52;;;;;;;3.25;1.42;;;;;;;7.60;100.00;99346.50;5092046;28;20050;-66
2024/01/02 02:46:41;;;;;;;3.63;1.08;;;;;;;7.58;100.00;99338.66;5091449;28;20396;-68
2024/01/02 02:49:29;;;;;;;2.45;1.20;;;;;;;7.61;100.00;99332.69;5078834;27;20182;-68
2024/01/02 02:52:19;;;;;;;2.47;1.00;;;;;;;7.60;100.00;99325.66;5121217;27;20043;-68
2024/01/02 02:55:08;;;;;;;1.27;0.80;;;;;;;7.62;100.00;99318.00;5087370;28;20169;-68
2024/01/02 02:57:56;;;;;;;1.08;0.77;;;;;;;7.61;100.00;99294.72;5115284;28;20112;-68
2024/01/02 03:00:44;;;;;;;2.45;1.17;;;;;;;7.61;100.00;99281.16;5115611;28;20048;-68
2024/01/02 03:03:32;;;;;;;1.80;0.90;;;;;;;7.61;100.00;99258.69;5099906;28;20054;-67
2024/01/02 03:06:20;;;;;;;1.65;1.00;;;;;;;7.63;100.00;99254.59;5131565;27;20051;-67
2024/01/02 03:09:10;;;;;;;1.83;1.00;;;;;;;7.67;100.00;99249.38;5102890;27;20043;-67
2024/01/02 03:11:58;;;;;;;1.15;1.05;;;;;;;7.64;100.00;99248.06;5120086;27;20077;-67
2024/01/02 03:14:46;;;;;;;1.35;0.73;;;;;;;7.66;100.00;99220.69;5115236;28;20087;-66
2024/01/02 03:17:34;;;;;;;1.35;0.77;;;;;;;7.68;100.00;99222.00;5100619;28;20052;-67
2024/01/02 03:20:22;;;;;;;1.85;1.05;;;;;;;7.70;100.00;99216.31;5115976;28;20040;-66
2024/01/02 03:23:10;;;;;;;1.40;0.70;;;;;;;7.68;100.00;99205.75;5114764;28;20122;-67
2024/01/02 03:25:59;;;;;;;1.02;0.80;;;;;;;7.69;100.00;99193.00;5114962;28;20173;-67
2024/01/02 03:28:47;;;;;;;1.02;0.80;;;;;;;7.67;100.00;99174.31;5113998;28;20039;-67
2024/01/02 03:31:35;;;;;;;2.55;0.82;;;;;;;7.65;100.00;99159.44;5100479;28;20415;-66
2024/01/02 03:34:23;;;;;;;0.55;0.55;;;;;;;7.63;100.00;99146.16;5114512;28;20407;-67
2024/01/02 03:37:13;;;;;;;1.15;0.77;;;;;;;7.68;100.00;99145.31;5114816;28;20173;-67
2024/01/02 03:40:02;;;;;;;2.53;0.82;;;;;;;7.63;100.00;99135.31;5094343;28;20071;-67
2024/01/02 03:42:50;;;;;;;0.60;0.60;;;;;;;7.62;100.00;99117.44;5092918;28;20125;-67
2024/01/02 03:45:38;;;;;;;1.35;0.60;;;;;;;7.64;100.00;99120.66;5078309;28;20051;-67
2024/01/02 03:48:26;;;;;;;0.77;0.70;;;;;;;7.64;100.00;99115.25;5070232;28;20075;-67
2024/01/02 03:51:15;;;;;;;1.30;0.88;;;;;;;7.66;100.00;99113.06;5112941;27;20515;-67
2024/01/02 03:54:03;;;;;;;0.85;0.75;;;;;;;7.71;100.00;99114.91;5113471;28;20046;-68
2024/01/02 03:56:51;;;;;;;2.05;1.00;;;;;;;7.75;100.00;99094.25;5099618;28;20055;-68
2024/01/02 03:59:39;;;;;;;0.70;0.70;;;;;;;7.78;100.00;99093.66;5098106;28;20048;-67
2024/01/02 04:02:26;;;;;;;1.55;0.88;;;;;;;7.80;100.00;99090.66;5098886;28;20525;-68
2024/01/02 04:05:15;;;;;;;1.30;0.80;;;;;;;7.85;100.00;99072.41;5098634;28;20040;-68
2024/01/02 04:08:04;;;;;;;0.93;0.90;;;;;;;7.95;100.00;99079.59;5113267;28;20393;-68
2024/01/02 04:10:52;;;;;;;1.65;0.82;;;;;;;7.93;100.00;99073.66;5065324;28;20040;-68
2024/01/02 04:13:40;;;;;;;1.85;1.00;;;;;;;7.95;100.00;99071.44;5093651;28;20048;-67
2024/01/02 04:16:28;;;;;;;0.77;0.70;;;;;;;7.92;100.00;99061.19;5111509;28;20055;-68
2024/01/02 04:19:17;;;;;;;1.20;0.52;;;;;;;7.91;100.00;99059.56;5112927;27;20047;-68
2024/01/02 04:22:06;;;;;;;0.95;0.50;;;;;;;7.94;100.00;99061.72;5105345;27;20036;-67
2024/01/02 04:24:54;;;;;;;0.77;0.70;;;;;;;7.98;100.00;99070.06;5099251;28;20044;-67
2024/01/02 04:27:42;;;;;;;0.70;0.70;;;;;;;8.04;100.00;99058.03;5114126;28;20046;-67
2024/01/02 04:30:30;;;;;;;0.55;0.55;;;;;;;8.05;100.00;99051.50;5087245;28;20044;-68
2024/01/02 04:33:18;;;;;;;1.23;0.80;;;;;;;8.04;100.00;99048.00;5084467;28;20043;-67
2024/01/02 04:36:07;;;;;;;1.38;0.90;;;;;;;8.05;100.00;99035.25;5114786;28;20044;-67
2024/01/02 04:38:55;;;;;;;0.73;0.73;;;;;;;8.15;100.00;99045.91;5082601;27;20047;-66
2024/01/02 04:41:43;;;;;;;0.90;0.60;;;;;;;8.16;100.00;99044.84;5132272;27;20540;-68
2024/01/02 04:44:31;;;;;;;0.60;0.60;;;;;;;8.16;100.00;99028.56;5112476;28;20181;-67
2024/01/02 04:47:19;;;;;;;0.60;0.60;;;;;;;8.18;100.00;99033.66;5111632;27;20047;-67
2024/01/02 04:50:08;;;;;;;0.52;0.52;;;;;;;8.17;100.00;99034.78;5097432;28;20040;-68
2024/01/02 04:52:56;;;;;;;0.68;0.68;;;;;;;8.20;100.00;99026.03;5083068;28;20046;-68
2024/01/02 04:55:44;;;;;;;0.93;0.73;;;;;;;8.24;100.00;99018.94;5113639;28;20058;-68
2024/01/02 04:58:32;;;;;;;0.63;0.60;;;;;;;8.23;100.00;99014.63;5113411;27;20051;-67
2024/01/02 05:01:20;;;;;;;0.95;0.50;;;;;;;8.25;100.00;99025.97;5112153;28;20043;-67
2024/01/02 05:04:08;;;;;;;1.23;0.85;;;;;;;8.26;100.00;99016.72;5085836;28;20043;-67
2024/01/02 05:06:56;;;;;;;0.50;0.50;;;;;;;8.30;100.00;99020.47;5094056;28;20039;-68
2024/01/02 05:09:44;;;;;;;0.60;0.60;;;;;;;8.28;100.00;99026.19;5112345;28;20054;-67
2024/01/02 05:12:32;;;;;;;0.40;0.40;;;;;;;8.29;100.00;99026.97;5112626;28;20411;-67
2024/01/02 05:15:20;;;;;;;0.35;0.35;;;;;;;8.31;100.00;99027.50;5083639;28;20093;-68
2024/01/02 05:18:08;;;;;;;0.52;0.52;;;;;;;8.32;100.00;99034.53;5110545;28;20140;-67
2024/01/02 05:20:57;;;;;;;0.60;0.60;;;;;;;8.34;100.00;99029.59;5112280;28;20050;-67
2024/01/02 05:23:45;;;;;;;0.50;0.50;;;;;;;8.36;100.00;99013.03;5112300;28;20131;-67
2024/01/02 05:26:33;;;;;;;0.40;0.40;;;;;;;8.38;100.00;99030.63;5096414;28;20116;-67
2024/01/02 05:29:21;;;;;;;0.50;0.50;;;;;;;8.43;100.00;99025.13;5100565;28;20052;-66
2024/01/02 05:32:09;;;;;;;1.67;0.85;;;;;;;8.47;100.00;99009.88;5120071;28;20051;-64
2024/01/02 05:34:57;;;;;;;0.38;0.38;;;;;;;8.49;100.00;99015.81;5134051;28;20075;-65
2024/01/02 05:37:45;;;;;;;0.50;0.50;;;;;;;8.53;100.00;99005.16;5119201;28;20044;-67
2024/01/02 05:40:33;;;;;;;0.57;0.57;;;;;;;8.58;100.00;99001.56;5129013;28;20107;-66
2024/01/02 05:43:21;;;;;;;0.40;0.40;;;;;;;8.59;100.00;99003.19;5113371;28;20082;-67
2024/01/02 05:46:09;;;;;;;0.50;0.50;;;;;;;8.60;100.00;99018.34;5126487;28;20568;-67
2024/01/02 05:48:57;;;;;;;0.60;0.60;;;;;;;8.61;100.00;99022.66;5106666;28;20075;-67
2024/01/02 05:51:45;;;;;;;1.92;0.60;;;;;;;8.66;100.00;99014.41;5117274;28;20118;-67
2024/01/02 05:54:33;;;;;;;1.20;1.00;;;;;;;8.75;100.00;99015.34;5124175;28;20132;-67
2024/01/02 05:57:21;;;;;;;0.50;0.50;;;;;;;8.77;100.00;99018.56;5072214;28;20039;-66
2024/01/02 06:00:10;;;;;;;0.60;0.60;;;;;;;8.85;100.00;99007.03;5078707;28;20037;-67
2024/01/02 06:02:58;;;;;;;1.10;0.73;;;;;;;8.87;100.00;99037.38;5092645;28;20051;-67
2024/01/02 06:05:46;;;;;;;0.55;0.50;;;;;;;8.91;100.00;99038.38;5105348;28;20039;-67
2024/01/02 06:08:34;;;;;;;0.50;0.50;;;;;;;9.00;100.00;99026.84;5111219;28;20043;-67
2024/01/02 06:11:22;;;;;;;1.13;0.60;;;;;;;9.00;100.00;99035.78;5112454;28;20048;-66
2024/01/02 06:14:11;;;;;;;1.15;0.80;;;;;;;9.07;100.00;99046.25;5096437;28;20043;-67
2024/01/02 06:17:00;;;;;;;0.88;0.60;;;;;;;9.08;100.00;99059.53;5083707;28;20051;-67
2024/01/02 06:19:48;;;;;;;0.73;0.70;;;;;;;9.07;100.00;99051.69;5095205;27;20043;-67
2024/01/02 06:22:37;;;;;;;0.88;0.60;;;;;;;9.05;100.00;99057.41;5104057;27;20497;-68
2024/01/02 06:25:25;;;;;;;0.65;0.65;;;;;;;9.05;100.00;99054.72;5109187;27;20415;-67
2024/01/02 06:28:13;;;;;;;0.82;0.70;;;;;;;9.11;100.00;99064.34;5111358;28;20052;-67
2024/01/02 06:31:05;;;;;;;0.63;0.60;;;;;;;9.13;100.00;99072.22;5115543;28;20407;-67
2024/01/02 06:33:53;;;;;;;0.60;0.60;;;;;;;9.14;100.00;99084.72;5119946;27;20039;-66
2024/01/02 06:36:41;;;;;;;0.70;0.70;;;;;;;9.16;100.00;99087.91;5082306;28;20051;-67
2024/01/02 06:39:29;;;;;;;0.70;0.70;;;;;;;9.17;100.00;99084.09;5066378;28;20385;-67
2024/01/02 06:42:17;;;;;;;1.00;1.00;;;;;;;9.22;100.00;99083.19;5100443;27;20036;-67
2024/01/02 06:45:07;;;;;;;1.50;1.40;;;;;;;9.21;100.00;99092.44;5085238;28;20050;-67
2024/01/02 06:47:55;;;;;;;1.38;1.27;;;;;;;9.22;100.00;99091.34;5115433;28;20048;-67
2024/01/02 06:50:44;;;;;;;3.38;1.70;;;;;;;9.24;100.00;99098.09;5100406;28;20043;-67
2024/01/02 06:53:32;;;;;;;3.05;2.30;;;;;;;9.26;100.00;99098.59;5099739;28;20052;-66
2024/01/02 06:56:20;;;;;;;2.47;2.13;;;;;;;9.26;100.00;99109.47;5090097;27;20047;-66
2024/01/02 06:59:08;;;;;;;4.05;2.00;;;;;;;9.30;100.00;99112.38;5093327;27;20141;-67
2024/01/02 07:01:56;;;;;;;3.22;2.50;;;;;;;9.31;100.00;99117.53;5135186;27;20088;-67
2024/01/02 07:04:44;;;;;;;3.97;2.70;;;;;;;9.35;100.00;99115.78;5094989;28;20044;-67
2024/01/02 07:07:33;;;;;;;4.95;2.80;;;;;;;9.36;100.00;99108.47;5110679;27;20045;-69
2024/01/02 07:10:21;;;;;;;5.15;2.65;;;;;;;9.38;100.00;99107.06;5134998;27;20172;-68
2024/01/02 07:13:09;;;;;;;4.32;2.33;;;;;;;9.41;100.00;99113.78;4763328;27;10000556;-68
2024/01/02 07:15:57;;;;;;;5.50;3.20;;;;;;;9.42;100.00;99122.75;5076033;28;20048;-68
2024/01/02 07:18:45;;;;;;;7.88;3.00;;;;;;;9.43;100.00;99124.34;5090012;28;20460;-67
2024/01/02 07:21:33;;;;;;;4.50;2.97;;;;;;;9.49;100.00;99123.16;5128220;27;20128;-66
2024/01/02 07:24:21;;;;;;;5.15;3.00;;;;;;;9.48;100.00;99122.34;5123536;27;20050;-67
2024/01/02 07:27:09;;;;;;;5.55;3.20;;;;;;;9.49;100.00;99134.03;5078068;27;20051;-67
2024/01/02 07:29:57;;;;;;;9.30;3.58;;;;;;;9.50;100.00;99141.06;5122598;27;20081;-67
2024/01/02 07:32:45;;;;;;;6.85;3.58;;;;;;;9.51;100.00;99148.91;5077778;28;20109;-67
2024/01/02 07:35:33;;;;;;;7.70;3.50;;;;;;;9.52;100.00;99144.28;5095477;28;20055;-67
2024/01/02 07:38:25;;;;;;;9.05;3.70;;;;;;;9.51;100.00;99142.69;5097023;28;20138;-67
2024/01/02 07:41:13;;;;;;;7.57;3.85;;;;;;;9.54;100.00;99152.94;5108264;27;20047;-67
2024/01/02 07:44:03;;;;;;;7.10;3.55;;;;;;;9.58;100.00;99159.41;5109152;27;20036;-66
2024/01/02 07:46:51;;;;;;;8.75;3.72;;;;;;;9.61;100.00;99172.38;5110062;28;20526;-67
2024/01/02 07:49:39;;;;;;;7.38;3.60;;;;;;;9.58;100.00;99173.00;5093843;28;20050;-67
2024/01/02 07:52:27;;;;;;;9.05;3.70;;;;;;;9.60;100.00;99178.94;5083472;28;20131;-68
2024/01/02 07:55:15;;;;;;;12.32;4.32;;;;;;;9.61;100.00;99191.41;5065180;28;20051;-67
2024/01/02 07:58:03;;;;;;;11.43;3.90;;;;;;;9.62;100.00;99193.06;5074994;28;20051;-68
2024/01/02 08:00:52;;;;;;;9.77;4.00;;;;;;;9.66;100.00;99187.81;5093940;27;20039;-68
2024/01/02 08:03:40;;;;;;;10.27;4.35;;;;;;;9.67;100.00;99195.66;5122292;27;20047;-69
2024/01/02 08:06:28;;;;;;;9.38;4.25;;;;;;;9.69;100.00;99193.47;5109519;28;20495;-67
2024/01/02 08:09:16;;;;;;;11.20;4.40;;;;;;;9.71;100.00;99187.69;5109967;28;20075;-67
2024/01/02 08:12:05;;;;;;;10.48;3.67;;;;;;;9.73;100.00;99180.03;5126438;27;20047;-68
2024/01/02 08:14:53;;;;;;;11.18;4.60;;;;;;;9.73;100.00;99185.47;5090398;28;20047;-68
2024/01/02 08:17:41;;;;;;;10.40;4.55;;;;;;;9.72;100.00;99181.97;5089857;28;20048;-67
2024/01/02 08:20:30;;;;;;;9.23;3.33;;;;;;;9.72;100.00;99187.41;5093731;27;20077;-66
2024/01/02 08:23:18;;;;;;;11.00;4.80;;;;;;;9.75;100.00;99186.78;5113465;27;20400;-66
2024/01/02 08:26:10;;;;;;;12.10;4.93;;;;;;;9.76;100.00;99184.88;5109259;28;20048;-66
2024/01/02 08:28:58;;;;;;;10.68;4.75;;;;;;;9.75;100.00;99192.22;5070675;28;20039;-67
2024/01/02 08:31:47;;;;;;;12.40;4.13;;;;;;;9.76;100.00;99193.81;5129562;27;20130;-67
2024/01/02 08:34:35;;;;;;;11.45;3.90;;;;;;;9.75;100.00;99181.34;5133568;27;20047;-67
2024/01/02 08:37:23;;;;;;;7.63;3.10;;;;;;;9.76;100.00;99188.38;5133653;27;20137;-68
2024/01/02 08:40:11;;;;;;;9.90;3.53;;;;;;;9.78;100.00;99182.66;5131703;27;20047;-67
2024/01/02 08:42:59;;;;;;;9.48;3.63;;;;;;;9.81;100.00;99177.44;5112901;28;20102;-66
2024/01/02 08:45:48;;;;;;;10.48;2.97;;;;;;;9.85;100.00;99179.53;5112862;28;20119;-65
2024/01/02 08:48:36;;;;;;;13.27;3.90;;;;;;;9.85;100.00;99168.66;5083435;28;20054;-66
2024/01/02 08:51:24;;;;;;;9.52;3.17;;;;;;;9.87;100.00;99180.03;5097353;28;20126;-67
2024/01/02 08:54:12;;;;;;;9.45;3.55;;;;;;;9.89;100.00;99164.22;5113223;28;20131;-67
2024/01/02 08:57:01;;;;;;;8.18;3.15;;;;;;;9.90;100.00;99165.81;5095877;28;20127;-65
2024/01/02 08:59:49;;;;;;;7.32;3.30;;;;;;;9.96;100.00;99170.06;5070048;28;20054;-68
2024/01/02 09:02:37;;;;;;;10.82;3.30;;;;;;;9.96;100.00;99153.75;5091722;28;20048;-68
2024/01/02 09:05:26;;;;;;;9.93;3.08;;;;;;;10.02;100.00;99155.22;5091709;28;20054;-67
2024/01/02 09:08:14;;;;;;;12.43;3.53;;;;;;;10.02;100.00;99157.94;5098265;28;20511;-68
2024/01/02 09:11:02;;;;;;;6.53;2.90;;;;;;;10.05;100.00;99151.09;5112719;28;20411;-68
2024/01/02 09:13:50;;;;;;;9.55;4.10;;;;;;;10.07;100.00;99148.88;5106462;28;20119;-67
2024/01/02 09:16:39;;;;;;;10.98;3.88;;;;;;;10.08;100.00;99143.13;5091740;28;20138;-68
2024/01/02 09:19:27;;;;;;;10.07;3.70;;;;;;;10.16;100.00;99141.59;5109520;28;20128;-68
2024/01/02 09:22:15;;;;;;;12.93;4.28;;;;;;;10.16;100.00;99144.31;5108995;28;20120;-65
2024/01/02 09:25:03;;;;;;;15.48;4.90;;;;;;;10.18;100.00;99129.28;5068505;28;20529;-67
2024/01/02 09:27:53;;;;;;;10.32;3.75;;;;;;;10.20;100.00;99132.50;5090248;28;20048;-67
2024/01/02 09:30:43;;;;;;;10.77;3.78;;;;;;;10.20;100.00;99120.81;5079600;28;20047;-67
2024/01/02 09:33:31;;;;;;;7.35;3.20;;;;;;;10.21;100.00;99117.78;5097641;28;20361;-68
2024/01/02 09:36:19;;;;;;;11.68;3.83;;;;;;;10.26;100.00;99126.94;5097926;28;20122;-67
2024/01/02 09:39:08;;;;;;;8.75;4.00;;;;;;;10.23;100.00;99134.63;5084128;28;20191;-66
2024/01/02 09:42:12;;;;;;;6.53;3.03;;;;;;;10.26;100.00;99124.22;5093195;28;20048;-67
2024/01/02 09:45:07;;;;;;;9.57;3.60;;;;;;;10.30;100.00;99119.81;5100358;28;20407;-65
2024/01/02 09:48:04;;;;;;;5.60;2.63;;;;;;;10.29;100.00;99123.63;5083174;28;20510;-66
2024/01/02 09:51:07;;;;;;;14.30;4.53;;;;;;;10.33;100.00;99125.44;5119745;28;20039;-64
2024/01/02 09:54:03;;;;;;;5.53;2.53;;;;;;;10.29;100.00;99124.44;5108970;28;20103;-65
2024/01/02 09:56:56;;;;;;;13.40;4.15;;;;;;;10.32;100.00;99128.47;5112890;28;20470;-63
2024/01/02 10:00:16;;;;;;;8.98;3.00;;;;;;;10.35;100.00;99125.94;5124826;27;20042;-62
2024/01/02 10:03:17;;;;;;;7.85;3.53;;;;;;;10.35;100.00;99139.56;5123089;28;20105;-67
2024/01/02 10:06:32;;;;;;;10.70;4.65;;;;;;;10.36;100.00;99132.19;5115723;28;20054;-67
2024/01/02 10:09:23;;;;;;;14.48;4.63;;;;;;;10.43;100.00;99129.84;5088001;28;20044;-67
2024/01/02 10:12:32;;;;;;;5.82;3.10;;;;;;;10.42;100.00;99128.25;5085847;28;20438;-67
2024/01/02 10:15:32;;;;;;;5.90;2.78;;;;;;;10.39;100.00;99120.66;5089601;28;20388;-67
2024/01/02 10:19:02;;;;;;;2.70;2.10;;;;;;;10.37;100.00;99120.19;5091034;28;20056;-67
2024/01/02 10:22:11;;;;;;;3.88;2.30;;;;;;;10.36;100.00;99115.84;5096310;28;20040;-67
2024/01/02 10:25:09;;;;;;;3.13;1.80;;;;;;;10.34;100.00;99105.28;5068639;28;20043;-67
2024/01/02 10:28:12;;;;;;;11.20;3.83;;;;;;;10.36;100.00;99097.59;5097002;28;20134;-67
2024/01/02 10:31:11;;;;;;;21.13;5.95;;;;;;;10.41;100.00;99113.81;5086167;28;20621;-68
2024/01/02 10:34:03;;;;;;;16.02;6.10;;;;;;;10.50;100.00;99108.44;5070560;28;20055;-68
2024/01/02 10:36:57;;;;;;;18.92;6.03;;;;;;;10.54;100.00;99103.19;5081665;28;20063;-67
2024/01/02 10:39:53;;;;;;;3.22;1.90;;;;;;;10.53;100.00;99096.91;5091680;28;20411;-67
2024/01/02 10:43:01;;;;;;;9.50;2.67;;;;;;;10.56;100.00;99084.59;5102342;28;20050;-67
2024/01/02 10:46:10;;;;;;;6.45;2.70;;;;;;;10.63;100.00;99077.59;5100365;28;20039;-68
2024/01/02 10:49:34;;;;;;;5.85;2.30;;;;;;;10.66;100.00;99085.16;5098982;28;20169;-66
2024/01/02 10:52:42;;;;;;;2.78;1.30;;;;;;;10.59;100.00;99084.00;5089633;28;20044;-67
2024/01/02 10:55:57;;;;;;;3.67;1.67;;;;;;;10.52;100.00;99081.69;5111373;28;20050;-67
2024/01/02 10:59:10;;;;;;;1.50;1.40;;;;;;;10.49;100.00;99074.16;5091529;28;20047;-67
2024/01/02 11:02:31;;;;;;;1.85;1.42;;;;;;;10.48;100.00;99061.63;5104667;28;20059;-67
2024/01/02 11:05:31;;;;;;;1.52;1.42;;;;;;;10.47;100.00;99067.41;5100784;28;20051;-65
2024/01/02 11:08:55;;;;;;;1.42;1.20;;;;;;;10.45;100.00;99065.00;5084370;28;20069;-66
2024/01/02 11:11:50;;;;;;;1.98;1.55;;;;;;;10.43;100.00;99067.22;5052409;28;20048;-65
2024/01/02 11:14:58;;;;;;;1.65;1.38;;;;;;;10.43;100.00;99059.03;5094189;28;20407;-67
2024/01/02 11:17:47;;;;;;;1.65;1.20;;;;;;;10.43;100.00;99048.94;5097109;28;20054;-67
2024/01/02 11:20:49;;;;;;;1.73;1.60;;;;;;;10.42;100.00;99041.13;5068622;27;20075;-67
2024/01/02 11:23:42;;;;;;;2.25;1.27;;;;;;;10.42;100.00;99052.00;5073971;28;20052;-65
2024/01/02 11:26:42;;;;;;;4.63;1.90;;;;;;;10.47;100.00;99043.69;5109381;28;20392;-65
2024/01/02 11:29:35;;;;;;;10.02;3.55;;;;;;;10.56;100.00;99024.69;5083785;28;20051;-66
2024/01/02 11:32:36;;;;;;;8.50;3.33;;;;;;;10.66;100.00;99019.78;5106765;28;20181;-67
2024/01/02 11:35:26;;;;;;;11.98;3.83;;;;;;;10.69;100.00;99017.56;4375276;28;10000763;-68
2024/01/02 11:38:17;;;;;;;9.85;3.28;;;;;;;10.68;100.00;99019.47;5083032;28;20052;-68
2024/01/02 11:41:26;;;;;;;5.70;2.08;;;;;;;10.69;100.00;99025.72;5063080;28;20129;-67
2024/01/02 11:44:14;;;;;;;8.02;2.65;;;;;;;10.69;100.00;99020.28;5085355;28;20511;-67
2024/01/02 11:47:04;;;;;;;5.70;2.63;;;;;;;10.71;100.00;99012.59;5075637;28;20121;-67
2024/01/02 11:49:54;;;;;;;7.25;2.85;;;;;;;10.73;100.00;99004.91;5068605;28;20048;-67
2024/01/02 11:53:11;;;;;;;5.50;2.83;;;;;;;10.75;100.00;99008.94;5096368;28;20159;-67
2024/01/02 11:56:05;;;;;;;7.72;3.40;;;;;;;10.80;100.00;98997.06;5092099;28;20078;-67
2024/01/02 11:58:53;;;;;;;4.75;2.35;;;;;;;10.98;100.00;98993.31;5087942;28;20051;-68
2024/01/02 12:02:10;;;;;;;8.40;3.13;;;;;;;10.87;100.00;98997.41;5078626;28;20164;-69
2024/01/02 12:05:29;;;;;;;5.57;2.30;;;;;;;10.83;100.00;98985.56;5061882;28;20463;-67
2024/01/02 12:08:21;;;;;;;8.27;2.97;;;;;;;10.85;100.00;98981.41;5098928;28;21037;-67
2024/01/02 12:11:11;;;;;;;2.90;1.70;;;;;;;10.81;100.00;98966.81;5090497;28;20135;-68
2024/01/02 12:14:22;;;;;;;1.40;1.02;;;;;;;10.64;100.00;98959.38;5066451;28;20075;-68
2024/01/02 12:17:12;;;;;;;1.25;1.00;;;;;;;10.51;100.00;98957.56;5103400;28;20134;-67
2024/01/02 12:20:16;;;;;;;2.40;1.80;;;;;;;10.42;100.00;98951.25;5066946;28;20097;-65
2024/01/02 12:23:06;;;;;;;2.95;1.73;;;;;;;10.37;100.00;98944.03;5079275;28;20051;-67
2024/01/02 12:25:57;;;;;;;1.45;1.30;;;;;;;10.35;100.00;98931.84;5079181;28;20044;-68
2024/01/02 12:28:46;;;;;;;5.93;1.83;;;;;;;10.44;100.00;98927.25;5099139;28;20055;-65
2024/01/02 12:31:42;;;;;;;4.43;1.98;;;;;;;10.48;100.00;98925.50;5128669;27;20083;-68
2024/01/02 12:34:33;;;;;;;4.85;2.33;;;;;;;10.53;100.00;98900.84;5104729;27;20047;-67
2024/01/02 12:37:39;;;;;;;2.92;1.92;;;;;;;10.57;100.00;98890.94;5119200;27;20039;-67
2024/01/02 12:40:30;;;;;;;3.30;2.08;;;;;;;10.57;100.00;98879.25;5078259;28;20051;-69
2024/01/02 12:43:20;;;;;;;2.70;1.67;;;;;;;10.51;100.00;98872.31;5066873;28;20048;-66
2024/01/02 12:46:15;;;;;;;1.80;1.40;;;;;;;10.46;100.00;98862.38;5084392;28;20093;-67
2024/01/02 12:49:10;;;;;;;3.15;1.73;;;;;;;10.44;100.00;98854.53;5096353;28;20043;-67
2024/01/02 12:52:03;;;;;;;2.10;1.40;;;;;;;10.39;100.00;98842.97;5113749;28;20487;-66
2024/01/02 12:54:56;;;;;;;2.80;1.55;;;;;;;10.33;100.00;98836.09;5106922;28;20125;-66
2024/01/02 12:57:44;;;;;;;1.33;1.23;;;;;;;10.32;100.00;98826.28;5085502;28;20384;-68
2024/01/02 13:00:32;;;;;;;1.63;1.17;;;;;;;10.31;100.00;98811.88;5078392;28;20515;-66
2024/01/02 13:03:24;;;;;;;3.55;1.77;;;;;;;10.36;100.00;98805.50;5078472;28;20101;-67
2024/01/02 13:06:13;;;;;;;2.95;1.80;;;;;;;10.39;100.00;98802.13;5102358;27;20407;-66
2024/01/02 13:09:02;;;;;;;6.07;2.15;;;;;;;10.40;100.00;98785.50;5092807;28;20420;-67
2024/01/02 13:11:50;;;;;;;3.55;1.73;;;;;;;10.44;100.00;98775.59;5098336;28;20118;-67
2024/01/02 13:14:39;;;;;;;3.47;1.80;;;;;;;10.47;100.00;98771.44;5083322;28;20036;-66
2024/01/02 13:17:28;;;;;;;4.03;1.73;;;;;;;10.55;100.00;98762.47;5097102;28;20060;-66
2024/01/02 13:20:16;;;;;;;1.92;1.20;;;;;;;10.60;100.00;98758.78;5100326;27;20121;-66